Terminal Aerodrome Forecast
Issued by NWS

Home | Current Version | Previous Version | Text Only | Print | Product List | Glossary On
Versions: 1 2 3 4 5 6 7 8 9 10 11 12 13 14
005
FTUS41 KBTV 042320
TAFMPV
TAF
KMPV 042320Z 0500/0524 00000KT P6SM BKN025
     FM050500 00000KT P6SM SCT025 BKN110
     FM051100 15004KT 4SM -SN SCT020 OVC050
     FM051300 15005KT 1SM -SN BR OVC020
     FM052100 VRB03KT P6SM OVC020=

USA.gov is the U.S. government's official web portal to all federal, state and local government web resources and services.